Time;durP1;ratioP1;P1;durP2;ratioP2;P2;SDS_P1;SDS_P2;PMS_P1;PMS_P2;Temp;Humidity;BMP_temperature;BMP_pressure;BME280_temperature;BME280_humidity;BME280_pressure;Samples;Min_cycle;Max_cycle;Signal;HPM_P1;HPM_P2
2023/09/15 00:01:08;;;;;;;3.28;1.90;;;;;;;23.29;66.91;99948.25;10375254;28;97044;-87
2023/09/15 00:06:16;;;;;;;2.28;1.50;;;;;;;23.39;66.60;99949.09;10376754;28;96783;-86
2023/09/15 00:11:22;;;;;;;3.42;2.00;;;;;;;23.28;66.83;99955.50;10375032;28;96916;-86
2023/09/15 00:16:33;;;;;;;2.78;1.77;;;;;;;23.30;67.01;99956.16;10374722;28;97010;-86
2023/09/15 00:21:38;;;;;;;3.08;1.73;;;;;;;23.17;67.45;99962.88;10373780;28;96747;-86
2023/09/15 00:26:43;;;;;;;2.05;1.58;;;;;;;23.23;67.13;99970.34;10374843;28;97147;-85
2023/09/15 00:31:50;;;;;;;1.92;1.38;;;;;;;23.28;67.15;99963.56;10373785;28;97378;-86
2023/09/15 00:37:04;;;;;;;3.00;1.70;;;;;;;23.09;67.66;99969.00;10373700;28;96702;-87
2023/09/15 00:42:14;;;;;;;3.42;1.75;;;;;;;23.05;67.92;99956.84;10373646;28;97084;-86
2023/09/15 00:47:24;;;;;;;2.22;1.25;;;;;;;23.07;67.89;99956.69;10373556;28;97327;-86
2023/09/15 00:52:33;;;;;;;2.40;1.85;;;;;;;22.97;68.04;99950.53;10373276;28;98503;-85
2023/09/15 00:57:41;;;;;;;2.90;1.67;;;;;;;22.89;68.57;99953.09;10374097;28;96677;-86
2023/09/15 01:02:48;;;;;;;3.28;2.10;;;;;;;22.90;68.37;99957.47;10373239;28;97228;-86
2023/09/15 01:07:54;;;;;;;2.70;1.70;;;;;;;22.87;68.41;99955.09;10372668;28;96967;-86
2023/09/15 01:13:05;;;;;;;2.88;2.00;;;;;;;22.59;70.07;99960.31;10371868;28;97450;-87
2023/09/15 01:18:28;;;;;;;2.53;1.60;;;;;;;22.54;69.76;99954.53;10371709;28;96765;-88
2023/09/15 01:23:56;;;;;;;2.30;1.80;;;;;;;22.59;69.72;99954.94;10372396;28;97110;-86
2023/09/15 01:29:25;;;;;;;2.17;1.63;;;;;;;22.44;70.55;99950.16;10371883;28;96752;-87
2023/09/15 01:34:32;;;;;;;2.53;1.65;;;;;;;22.45;70.16;99943.84;10365269;28;97153;-86
2023/09/15 01:39:41;;;;;;;2.88;1.63;;;;;;;22.47;69.60;99945.38;10373067;28;97391;-87
2023/09/15 01:44:54;;;;;;;2.10;1.63;;;;;;;22.17;71.49;99944.69;10372051;28;97610;-86
2023/09/15 01:50:04;;;;;;;3.30;1.88;;;;;;;22.01;71.76;99945.25;10373174;28;97267;-86
2023/09/15 01:55:18;;;;;;;2.20;1.65;;;;;;;21.90;73.02;99947.19;10399923;28;98360;-87
2023/09/15 02:00:25;;;;;;;2.38;1.58;;;;;;;21.93;72.18;99939.72;10371962;28;97100;-87
2023/09/15 02:05:35;;;;;;;4.95;1.60;;;;;;;21.83;72.51;99932.66;10370835;28;96841;-86
2023/09/15 02:10:49;;;;;;;3.42;1.63;;;;;;;21.78;72.90;99941.09;10372096;28;96597;-86
2023/09/15 02:15:57;;;;;;;2.28;1.50;;;;;;;21.68;72.71;99932.22;10371302;28;96740;-88
2023/09/15 02:21:06;;;;;;;1.83;1.30;;;;;;;21.57;73.43;99931.50;10371106;28;96974;-87
2023/09/15 02:26:12;;;;;;;2.90;2.00;;;;;;;21.52;72.91;99935.41;10374222;28;96608;-88
2023/09/15 02:31:19;;;;;;;2.50;1.70;;;;;;;21.39;74.03;99934.84;10377654;28;97418;-87
2023/09/15 02:36:33;;;;;;;2.65;1.80;;;;;;;21.41;73.09;99935.53;10377563;28;96802;-87
2023/09/15 02:41:40;;;;;;;4.00;1.75;;;;;;;21.36;73.70;99931.59;10379001;28;97172;-88
2023/09/15 02:46:47;;;;;;;2.65;1.50;;;;;;;21.32;73.94;99933.69;10378812;28;97276;-88
2023/09/15 02:52:01;;;;;;;2.72;1.70;;;;;;;21.29;73.98;99928.59;10377522;28;96908;-87
2023/09/15 02:57:08;;;;;;;4.00;1.80;;;;;;;21.28;73.72;99926.03;10376558;28;97451;-88
2023/09/15 03:02:13;;;;;;;3.08;1.90;;;;;;;21.27;74.25;99935.94;10377583;28;96923;-87
2023/09/15 03:07:25;;;;;;;3.63;1.60;;;;;;;21.24;73.92;99938.03;10335225;28;96748;-87
2023/09/15 03:12:31;;;;;;;3.72;1.73;;;;;;;21.29;74.34;99943.81;10335501;28;96652;-87
2023/09/15 03:17:37;;;;;;;2.33;1.70;;;;;;;21.26;74.46;99947.59;10335567;28;97290;-89
2023/09/15 03:23:00;;;;;;;3.38;1.95;;;;;;;21.29;74.25;99939.28;10364869;28;97451;-88
2023/09/15 03:28:07;;;;;;;2.78;1.83;;;;;;;21.28;74.44;99936.75;10376085;28;96740;-88
2023/09/15 03:33:15;;;;;;;3.65;2.15;;;;;;;21.23;74.91;99939.84;10377563;28;96830;-86
2023/09/15 03:38:24;;;;;;;;;;;;;;;21.26;75.44;99933.34;10375848;28;97337;-87
2023/09/15 03:43:36;;;;;;;3.15;1.98;;;;;;;21.09;75.25;99924.13;10375985;28;96585;-86
2023/09/15 03:48:40;;;;;;;3.33;1.95;;;;;;;21.10;74.98;99931.16;10375168;28;96643;-85
2023/09/15 03:53:46;;;;;;;4.00;1.70;;;;;;;21.09;74.93;99925.94;10375430;28;96622;-87
2023/09/15 03:58:59;;;;;;;3.33;2.00;;;;;;;21.03;75.58;99923.81;10375235;28;96560;-86
2023/09/15 04:04:02;;;;;;;2.95;2.13;;;;;;;21.02;75.27;99920.28;10375408;28;96637;-86
2023/09/15 04:09:12;;;;;;;3.35;1.63;;;;;;;21.05;75.47;99920.00;10374930;28;97256;-86
2023/09/15 04:14:17;;;;;;;2.53;1.77;;;;;;;21.04;75.54;99915.66;10375397;28;96643;-88
2023/09/15 04:19:27;;;;;;;2.58;1.67;;;;;;;20.97;75.69;99892.25;10373991;28;96736;-88
2023/09/15 04:24:36;;;;;;;4.30;2.08;;;;;;;20.97;76.20;99886.88;10376576;28;96605;-87
2023/09/15 04:29:55;;;;;;;3.05;1.83;;;;;;;21.06;75.46;99886.09;10373844;28;97735;-89
2023/09/15 04:34:59;;;;;;;3.08;2.08;;;;;;;21.07;75.14;99882.44;10374749;28;97539;-87
2023/09/15 04:40:13;;;;;;;2.97;1.80;;;;;;;21.13;74.92;99879.22;10375010;28;96621;-87
2023/09/15 04:45:19;;;;;;;2.38;1.67;;;;;;;21.05;75.89;99865.69;10374012;28;96672;-86
2023/09/15 04:50:31;;;;;;;3.28;2.10;;;;;;;21.11;75.10;99857.94;10372725;28;96699;-88
2023/09/15 04:55:40;;;;;;;3.17;1.98;;;;;;;21.20;74.78;99862.50;10373745;28;96665;-87
2023/09/15 05:00:49;;;;;;;2.50;1.88;;;;;;;21.18;74.81;99869.84;10373536;28;96554;-89
2023/09/15 05:05:55;;;;;;;4.15;1.85;;;;;;;21.23;74.46;99877.44;10373242;28;96814;-89
2023/09/15 05:11:01;;;;;;;3.58;2.00;;;;;;;21.34;74.14;99864.81;10373762;28;97306;-88
2023/09/15 05:16:09;;;;;;;2.55;2.00;;;;;;;21.37;74.21;99864.53;10373905;28;96596;-88
2023/09/15 05:21:14;;;;;;;5.28;1.90;;;;;;;21.28;74.71;99854.63;10373081;28;96617;-87
2023/09/15 05:26:22;;;;;;;3.08;1.95;;;;;;;21.25;74.78;99870.97;10372655;28;97309;-88
2023/09/15 05:31:37;;;;;;;2.30;1.77;;;;;;;21.23;74.89;99864.06;10370445;28;96731;-89
2023/09/15 05:36:45;;;;;;;2.50;2.03;;;;;;;21.20;75.09;99873.22;10371984;28;96691;-88
2023/09/15 05:41:52;;;;;;;2.85;1.80;;;;;;;21.20;75.16;99878.56;10372397;28;97027;-87
2023/09/15 05:47:00;;;;;;;4.05;2.03;;;;;;;21.26;74.80;99879.84;10371921;28;96817;-87
2023/09/15 05:52:10;;;;;;;4.07;1.70;;;;;;;21.27;74.80;99873.50;10371751;28;97468;-88
2023/09/15 05:57:16;;;;;;;2.70;1.92;;;;;;;21.37;74.22;99866.34;10371306;28;96621;-87
2023/09/15 06:02:23;;;;;;;3.20;1.85;;;;;;;21.28;74.48;99877.88;10384584;28;96707;-88
2023/09/15 06:07:27;;;;;;;;;;;;;;;21.13;75.08;99892.59;10385946;28;97347;-87
2023/09/15 06:12:36;;;;;;;2.58;1.75;;;;;;;21.07;75.09;99901.19;10385166;28;96623;-88
2023/09/15 06:17:43;;;;;;;3.25;1.88;;;;;;;21.25;74.57;99904.91;10385593;28;97311;-88
2023/09/15 06:22:50;;;;;;;3.28;1.83;;;;;;;21.31;74.26;99907.06;10384125;28;96806;-88
2023/09/15 06:28:01;;;;;;;2.55;1.60;;;;;;;21.41;73.84;99902.56;10384871;28;96677;-88
2023/09/15 06:33:11;;;;;;;2.58;1.80;;;;;;;21.41;73.41;99906.06;10381294;28;96747;-87
2023/09/15 06:38:16;;;;;;;2.50;1.70;;;;;;;21.35;73.61;99909.31;10384548;28;97120;-85
2023/09/15 06:43:29;;;;;;;2.83;1.52;;;;;;;21.45;73.48;99910.19;10384211;28;97407;-87
2023/09/15 06:48:37;;;;;;;2.97;1.52;;;;;;;21.47;73.09;99912.72;10384756;28;97097;-86
2023/09/15 06:53:41;;;;;;;2.60;1.60;;;;;;;21.47;72.87;99918.06;10383741;28;96988;-87
2023/09/15 06:58:47;;;;;;;1.50;1.13;;;;;;;21.53;72.77;99925.56;10379445;22;98566;-88
2023/09/15 07:03:55;;;;;;;2.00;1.40;;;;;;;21.70;72.41;99914.19;10342689;28;97729;-87
2023/09/15 07:09:00;;;;;;;2.70;1.80;;;;;;;21.65;72.41;99919.09;10342388;28;96650;-87
2023/09/15 07:14:07;;;;;;;2.45;1.30;;;;;;;21.65;72.02;99913.75;10333977;28;96619;-88
2023/09/15 07:19:16;;;;;;;3.22;1.63;;;;;;;21.75;71.81;99925.31;10334994;28;97189;-87
2023/09/15 07:24:20;;;;;;;2.13;1.40;;;;;;;22.15;71.21;99918.03;10335520;28;96976;-88
2023/09/15 07:29:34;;;;;;;2.10;1.48;;;;;;;23.36;68.25;99909.09;10334877;28;97225;-87
2023/09/15 07:34:46;;;;;;;2.03;1.33;;;;;;;24.49;66.25;99919.16;10335399;28;96764;-87
2023/09/15 07:39:53;;;;;;;2.20;1.38;;;;;;;25.53;63.63;99903.59;10334784;28;96749;-88
2023/09/15 07:44:59;;;;;;;1.73;1.30;;;;;;;26.18;60.69;99912.66;10334476;28;97593;-88
2023/09/15 07:50:08;;;;;;;2.60;1.50;;;;;;;26.78;59.89;99900.47;10334975;28;96862;-87
2023/09/15 07:55:15;;;;;;;3.58;1.38;;;;;;;27.59;58.29;99900.22;10334062;28;97089;-88
2023/09/15 08:00:23;;;;;;;1.90;1.60;;;;;;;27.73;55.72;99897.63;10333258;28;97427;-87
2023/09/15 08:05:29;;;;;;;1.58;1.20;;;;;;;28.02;55.09;99900.47;10332810;28;97622;-88
2023/09/15 08:10:40;;;;;;;3.08;1.33;;;;;;;28.40;54.25;99898.66;10333757;28;97306;-90
2023/09/15 08:15:51;;;;;;;1.95;1.50;;;;;;;28.45;52.67;99892.69;10333748;28;97443;-87
2023/09/15 08:20:57;;;;;;;2.50;1.50;;;;;;;28.87;53.01;99893.81;10333021;28;96712;-87
2023/09/15 08:26:06;;;;;;;2.92;1.40;;;;;;;29.86;50.59;99895.97;10332127;28;97560;-87
2023/09/15 08:31:14;;;;;;;2.17;1.40;;;;;;;30.69;48.77;99896.16;10333152;28;97161;-89
2023/09/15 08:36:18;;;;;;;2.92;1.33;;;;;;;31.59;47.44;99902.34;10332943;28;97431;-88
2023/09/15 08:41:40;;;;;;;2.55;1.58;;;;;;;31.61;45.25;99902.97;10333302;28;97327;-87
2023/09/15 08:46:54;;;;;;;2.45;1.50;;;;;;;31.66;43.51;99898.59;10332258;28;96748;-86
2023/09/15 08:52:07;;;;;;;1.23;1.13;;;;;;;31.17;44.89;99895.22;10331960;28;96701;-88
2023/09/15 08:57:14;;;;;;;1.73;1.38;;;;;;;31.21;44.62;99886.47;10290075;28;96787;-88
2023/09/15 09:02:24;;;;;;;1.80;1.50;;;;;;;30.85;45.02;99885.84;10316827;28;97002;-85
2023/09/15 09:07:31;;;;;;;2.45;1.48;;;;;;;31.86;43.41;99882.38;10332055;28;96659;-86
2023/09/15 09:12:35;;;;;;;1.80;1.35;;;;;;;32.13;42.85;99884.09;10332406;28;96735;-88
2023/09/15 09:17:52;;;;;;;2.17;1.40;;;;;;;31.12;43.42;99875.94;10331950;28;96846;-89
2023/09/15 09:23:03;;;;;;;2.50;1.70;;;;;;;31.33;43.53;99881.31;10331614;28;96717;-86
2023/09/15 09:28:09;;;;;;;2.00;1.13;;;;;;;32.10;42.23;99879.06;10331720;28;96948;-87
2023/09/15 09:33:21;;;;;;;1.20;1.00;;;;;;;31.96;41.80;99870.03;10332493;28;96725;-86
2023/09/15 09:38:27;;;;;;;2.22;1.52;;;;;;;32.46;41.44;99874.09;10290375;28;96605;-87
2023/09/15 09:43:36;;;;;;;2.00;1.38;;;;;;;33.23;40.70;99875.00;10290415;28;96790;-88
2023/09/15 09:48:51;;;;;;;2.20;1.55;;;;;;;32.87;40.55;99863.78;10289929;28;96590;-86
2023/09/15 09:54:02;;;;;;;2.40;1.20;;;;;;;33.47;38.96;99855.22;10322067;28;96886;-87
2023/09/15 09:59:12;;;;;;;3.05;1.15;;;;;;;32.13;41.71;99865.03;10331492;28;96857;-86
2023/09/15 10:04:22;;;;;;;1.80;1.30;;;;;;;31.02;42.47;99851.88;10331179;28;96695;-87
2023/09/15 10:09:26;;;;;;;2.42;1.38;;;;;;;30.27;43.62;99842.72;10331922;28;96783;-86
2023/09/15 10:14:35;;;;;;;1.63;1.30;;;;;;;31.62;41.83;99837.47;10330115;28;96597;-86
2023/09/15 10:19:46;;;;;;;1.92;1.40;;;;;;;32.42;40.22;99838.25;10329707;28;96806;-87
2023/09/15 10:25:03;;;;;;;1.83;1.42;;;;;;;33.94;37.54;99829.34;10330179;28;96746;-87
2023/09/15 10:30:16;;;;;;;1.63;1.30;;;;;;;33.76;38.51;99820.22;10330249;28;96960;-87
2023/09/15 10:35:25;;;;;;;2.30;1.38;;;;;;;33.87;38.24;99812.13;10329769;28;96654;-86
2023/09/15 10:40:42;;;;;;;2.13;1.60;;;;;;;31.84;41.80;99814.50;10324285;28;98343;-87
2023/09/15 10:46:02;;;;;;;2.50;1.80;;;;;;;30.25;44.47;99812.22;10331739;28;96713;-87
2023/09/15 10:51:11;;;;;;;2.55;1.63;;;;;;;31.49;42.80;99798.53;10338400;28;97612;-85
2023/09/15 10:56:23;;;;;;;2.75;1.77;;;;;;;32.18;41.88;99802.59;10339207;28;97333;-86
2023/09/15 11:01:33;;;;;;;1.92;1.50;;;;;;;32.23;41.08;99798.22;10336758;28;97376;-86
2023/09/15 11:06:43;;;;;;;;;;;;;;;32.33;41.43;99787.75;10336316;28;96623;-87
2023/09/15 11:11:48;;;;;;;2.08;1.48;;;;;;;33.69;39.38;99778.47;10336572;28;96689;-86
2023/09/15 11:17:04;;;;;;;2.55;1.73;;;;;;;34.13;38.38;99784.66;10336374;28;97239;-86
2023/09/15 11:22:12;;;;;;;2.63;1.95;;;;;;;33.03;39.07;99776.09;10335762;28;96652;-85
2023/09/15 11:27:17;;;;;;;2.50;1.90;;;;;;;32.80;39.66;99792.06;10335586;28;97349;-86
2023/09/15 11:32:24;;;;;;;2.10;1.65;;;;;;;31.50;41.87;99778.41;10334169;28;96929;-85
2023/09/15 11:37:36;;;;;;;2.85;1.88;;;;;;;30.15;45.07;99774.56;10336231;28;96514;-86
2023/09/15 11:42:55;;;;;;;2.95;2.20;;;;;;;31.73;41.91;99770.72;10337403;28;96620;-87
2023/09/15 11:48:03;;;;;;;2.20;1.65;;;;;;;32.49;41.44;99750.22;10336814;28;96587;-85
2023/09/15 11:53:14;;;;;;;2.47;1.70;;;;;;;32.82;40.41;99756.41;10336220;28;97337;-86
2023/09/15 11:58:26;;;;;;;2.47;1.83;;;;;;;33.87;38.44;99748.50;10334293;28;96717;-85
2023/09/15 12:03:44;;;;;;;3.83;2.00;;;;;;;34.25;38.05;99754.69;10334540;28;97123;-86
2023/09/15 12:08:59;;;;;;;3.70;2.47;;;;;;;32.80;40.73;99743.00;10334208;28;96723;-86
2023/09/15 12:14:06;;;;;;;4.65;3.00;;;;;;;30.95;43.37;99734.13;10333808;28;97187;-87
2023/09/15 12:19:15;;;;;;;3.70;3.00;;;;;;;33.58;39.36;99721.84;10333238;28;96716;-86
2023/09/15 12:24:30;;;;;;;5.75;3.38;;;;;;;32.09;41.28;99723.03;10332116;28;96735;-87
2023/09/15 12:29:39;;;;;;;4.05;3.17;;;;;;;33.62;39.14;99703.97;10332810;28;96682;-87
2023/09/15 12:34:49;;;;;;;3.92;2.78;;;;;;;34.23;38.13;99704.94;10332997;28;96806;-87
2023/09/15 12:39:57;;;;;;;4.60;3.22;;;;;;;33.94;38.36;99692.81;10331608;28;96717;-89
2023/09/15 12:45:05;;;;;;;3.28;2.53;;;;;;;34.53;37.73;99684.03;10332105;28;97295;-86
2023/09/15 12:50:14;;;;;;;5.38;3.15;;;;;;;34.34;37.91;99676.84;10332919;28;97174;-88
2023/09/15 12:55:23;;;;;;;4.43;3.45;;;;;;;33.49;39.35;99670.28;10332647;28;96732;-89
2023/09/15 13:00:30;;;;;;;5.30;3.28;;;;;;;32.59;40.97;99660.69;10332151;28;97327;-87
2023/09/15 13:05:42;;;;;;;4.65;3.97;;;;;;;30.98;43.57;99652.16;10332007;28;97298;-86
2023/09/15 13:10:50;;;;;;;6.07;4.03;;;;;;;30.41;45.67;99638.13;10330748;28;96747;-86
2023/09/15 13:15:57;;;;;;;8.05;5.00;;;;;;;30.61;44.65;99619.22;10330637;28;96755;-87
2023/09/15 13:21:05;;;;;;;6.15;4.28;;;;;;;29.92;46.92;99624.69;10331820;28;97685;-85
2023/09/15 13:26:12;;;;;;;7.65;5.13;;;;;;;29.18;49.09;99618.03;10331865;28;96965;-85
2023/09/15 13:31:16;;;;;;;6.15;4.65;;;;;;;30.22;47.28;99598.16;10331101;28;97030;-86
2023/09/15 13:36:23;;;;;;;5.93;4.40;;;;;;;31.19;45.57;99589.47;10290038;28;97282;-85
2023/09/15 13:41:30;;;;;;;7.53;4.97;;;;;;;31.33;45.35;99590.34;10325078;28;97287;-86
2023/09/15 13:46:37;;;;;;;7.60;5.13;;;;;;;31.38;45.60;99576.09;10330409;28;96884;-85
2023/09/15 13:51:43;;;;;;;8.40;4.97;;;;;;;30.74;46.67;99581.25;10331311;28;96944;-85
2023/09/15 13:56:49;;;;;;;6.70;4.68;;;;;;;30.63;46.86;99577.22;10329993;28;96720;-84
2023/09/15 14:01:55;;;;;;;7.03;4.43;;;;;;;30.40;47.69;99576.75;10329933;28;96707;-86
2023/09/15 14:07:05;;;;;;;6.50;4.40;;;;;;;30.82;46.18;99562.03;10329087;28;96706;-86
2023/09/15 14:12:14;;;;;;;6.60;4.40;;;;;;;29.34;49.36;99567.28;10330047;28;97399;-84
2023/09/15 14:17:19;;;;;;;6.13;4.28;;;;;;;29.26;49.62;99554.72;10330176;28;96717;-86
2023/09/15 14:22:27;;;;;;;6.25;4.05;;;;;;;29.54;49.06;99552.88;10335032;28;96799;-87
2023/09/15 14:27:35;;;;;;;7.75;4.43;;;;;;;29.92;48.35;99542.44;10337133;28;96775;-83
2023/09/15 14:32:45;;;;;;;6.68;4.25;;;;;;;29.51;49.26;99544.28;10336504;28;96842;-85
2023/09/15 14:37:49;;;;;;;5.30;3.80;;;;;;;29.82;48.96;99539.25;10336668;28;97333;-86
2023/09/15 14:42:55;;;;;;;5.18;3.25;;;;;;;29.58;49.82;99534.31;10336998;28;96605;-86
2023/09/15 14:48:04;;;;;;;5.88;3.80;;;;;;;28.92;50.59;99533.81;10336217;28;97501;-84
2023/09/15 14:53:09;;;;;;;4.82;3.70;;;;;;;28.58;51.74;99524.69;10336393;28;96659;-85
2023/09/15 14:58:15;;;;;;;4.43;3.30;;;;;;;29.05;51.00;99523.06;10334804;28;96800;-86
2023/09/15 15:03:21;;;;;;;4.97;3.03;;;;;;;28.34;52.39;99536.72;10335781;28;97400;-84
2023/09/15 15:08:25;;;;;;;4.55;3.20;;;;;;;28.14;52.97;99538.31;10335688;28;97229;-85
2023/09/15 15:13:37;;;;;;;5.00;3.55;;;;;;;28.24;53.18;99525.31;10336061;28;97323;-85
2023/09/15 15:18:48;;;;;;;;;;;;;;;28.32;53.39;99522.53;10336257;28;97273;-85
2023/09/15 15:24:06;;;;;;;6.10;3.60;;;;;;;28.52;52.41;99529.00;10335654;28;96617;-85
2023/09/15 15:29:16;;;;;;;4.25;3.10;;;;;;;28.54;52.46;99526.09;10335435;28;96695;-85
2023/09/15 15:34:29;;;;;;;4.78;3.60;;;;;;;28.39;53.03;99530.72;10334894;28;97228;-84
2023/09/15 15:39:34;;;;;;;5.30;3.05;;;;;;;27.74;54.21;99542.38;10334194;28;97712;-83
2023/09/15 15:44:45;;;;;;;6.25;3.53;;;;;;;27.47;55.00;99531.34;10334705;28;96733;-86
2023/09/15 15:49:56;;;;;;;5.53;3.08;;;;;;;27.35;55.16;99506.63;10333419;28;97441;-85
2023/09/15 15:55:04;;;;;;;5.45;3.03;;;;;;;27.46;54.60;99513.44;10334816;28;97050;-84
2023/09/15 16:00:12;;;;;;;5.30;3.05;;;;;;;27.08;55.09;99506.41;10333915;28;96930;-85
2023/09/15 16:05:29;;;;;;;5.82;3.53;;;;;;;26.66;56.69;99531.22;10333969;28;97033;-85
2023/09/15 16:10:34;;;;;;;5.10;2.80;;;;;;;26.61;56.59;99529.03;10333573;28;97064;-85
2023/09/15 16:15:47;;;;;;;4.65;3.10;;;;;;;26.17;58.39;99541.44;10333869;28;96775;-85
2023/09/15 16:20:52;;;;;;;4.72;3.10;;;;;;;26.24;57.74;99546.97;10333652;28;96997;-85
2023/09/15 16:25:56;;;;;;;4.90;3.10;;;;;;;25.95;58.63;99555.72;10333754;28;96780;-86
2023/09/15 16:31:07;;;;;;;4.03;3.10;;;;;;;25.77;59.73;99574.81;10333791;28;96989;-85
2023/09/15 16:36:14;;;;;;;4.90;3.13;;;;;;;25.80;59.53;99565.53;10333309;28;96729;-84
2023/09/15 16:41:24;;;;;;;6.63;3.30;;;;;;;25.61;60.43;99576.66;10327398;28;96738;-84
2023/09/15 16:46:37;;;;;;;4.13;3.30;;;;;;;25.35;61.08;99576.91;10331500;28;96791;-86
2023/09/15 16:51:41;;;;;;;5.10;2.90;;;;;;;25.36;60.52;99570.50;10332719;28;96689;-85
2023/09/15 16:56:47;;;;;;;4.40;2.97;;;;;;;25.22;61.05;99584.66;10332288;28;97012;-86
2023/09/15 17:02:00;;;;;;;4.60;2.97;;;;;;;25.21;61.53;99582.16;10331722;28;96603;-84
2023/09/15 17:07:07;;;;;;;3.78;2.60;;;;;;;25.14;61.24;99571.19;10331492;28;96712;-86
2023/09/15 17:12:12;;;;;;;5.68;2.78;;;;;;;24.93;61.94;99557.34;10331770;28;97645;-86
2023/09/15 17:17:19;;;;;;;7.47;3.42;;;;;;;24.83;61.89;99572.84;10332242;28;96573;-86
2023/09/15 17:22:26;;;;;;;4.25;2.80;;;;;;;24.62;62.31;99583.25;10331950;28;97398;-86
2023/09/15 17:27:30;;;;;;;6.45;3.15;;;;;;;24.62;62.01;99594.84;10331194;28;97373;-86
2023/09/15 17:32:42;;;;;;;4.00;2.75;;;;;;;24.40;62.96;99578.50;10329943;28;96940;-85
2023/09/15 17:37:49;;;;;;;7.07;3.38;;;;;;;24.37;62.74;99600.34;10330996;28;97325;-86
2023/09/15 17:42:53;;;;;;;5.45;2.97;;;;;;;24.46;62.52;99594.81;10330777;28;96798;-87
2023/09/15 17:48:04;;;;;;;4.57;2.65;;;;;;;24.41;62.98;99590.94;10330685;28;96872;-86
2023/09/15 17:53:11;;;;;;;5.68;3.13;;;;;;;24.15;63.84;99599.03;10330780;28;97613;-85
2023/09/15 17:58:15;;;;;;;6.28;3.10;;;;;;;23.98;64.15;99608.06;10330189;28;96754;-87
2023/09/15 18:03:23;;;;;;;4.68;2.67;;;;;;;23.92;64.41;99611.41;10330450;28;96787;-87
2023/09/15 18:08:31;;;;;;;6.25;3.40;;;;;;;24.00;63.81;99619.50;10330915;28;96613;-86
2023/09/15 18:13:45;;;;;;;5.25;3.20;;;;;;;24.03;63.74;99619.16;10330101;28;96974;-87
2023/09/15 18:18:55;;;;;;;5.32;3.40;;;;;;;24.05;63.60;99629.78;10330325;28;96719;-85
2023/09/15 18:24:00;;;;;;;5.13;3.00;;;;;;;23.72;65.16;99642.16;10328513;28;96927;-87
2023/09/15 18:29:06;;;;;;;4.25;2.72;;;;;;;23.77;64.83;99647.09;10329549;28;96643;-87
2023/09/15 18:34:15;;;;;;;5.38;2.75;;;;;;;23.51;65.54;99647.88;10329874;28;97931;-86
2023/09/15 18:39:24;;;;;;;3.75;2.63;;;;;;;23.25;66.87;99646.19;10328760;28;96892;-86
2023/09/15 18:44:29;;;;;;;5.82;3.60;;;;;;;23.14;67.91;99654.47;10329315;28;96781;-87
2023/09/15 18:49:38;;;;;;;6.45;2.92;;;;;;;22.85;68.81;99656.53;10329275;28;96686;-87
2023/09/15 18:54:42;;;;;;;4.13;2.97;;;;;;;23.09;68.02;99662.16;10328834;28;96767;-88
2023/09/15 18:59:46;;;;;;;;;;;;;;;22.99;68.79;99653.34;10330532;28;97256;-87
2023/09/15 19:04:52;;;;;;;5.57;3.10;;;;;;;22.98;67.64;99652.47;10328729;28;96726;-88
2023/09/15 19:09:59;;;;;;;8.23;2.80;;;;;;;22.85;67.85;99652.03;10334330;28;96744;-87
2023/09/15 19:15:04;;;;;;;5.32;2.65;;;;;;;22.92;67.09;99645.03;10334474;28;96877;-88
2023/09/15 19:20:14;;;;;;;4.93;2.60;;;;;;;22.89;66.83;99653.38;10335726;28;97516;-87
2023/09/15 19:25:19;;;;;;;5.93;3.08;;;;;;;22.98;66.40;99649.78;10335277;28;96625;-87
2023/09/15 19:30:22;;;;;;;;;;;;;;;23.22;65.91;99658.06;10317130;22;99814;-85
2023/09/15 19:35:29;;;;;;;4.88;2.70;;;;;;;23.23;65.06;99658.91;10293663;28;97917;-87
2023/09/15 19:40:33;;;;;;;5.00;3.10;;;;;;;23.26;65.07;99670.19;10291699;28;96782;-87
2023/09/15 19:45:39;;;;;;;;;;;;;;;23.13;65.36;99672.41;10293305;28;96632;-86
2023/09/15 19:50:49;;;;;;;4.68;2.55;;;;;;;22.99;65.37;99688.22;10293678;28;97463;-87
2023/09/15 19:55:54;;;;;;;5.95;2.95;;;;;;;22.83;65.71;99691.59;10292999;28;96744;-83
2023/09/15 20:00:58;;;;;;;5.10;2.88;;;;;;;23.07;65.21;99712.44;10314753;28;97336;-83
2023/09/15 20:06:09;;;;;;;4.85;2.92;;;;;;;23.07;65.22;99715.13;10294038;28;97094;-87
2023/09/15 20:11:14;;;;;;;5.63;2.70;;;;;;;23.15;64.93;99724.09;10280948;28;96957;-83
2023/09/15 20:16:18;;;;;;;4.03;2.53;;;;;;;23.19;64.80;99711.22;10290478;28;97037;-82
2023/09/15 20:21:26;;;;;;;6.30;2.90;;;;;;;23.26;64.44;99707.78;10288164;28;97428;-80
2023/09/15 20:26:30;;;;;;;4.47;2.50;;;;;;;23.31;63.86;99700.09;10280015;28;98328;-80
2023/09/15 20:31:33;;;;;;;4.05;2.45;;;;;;;23.43;63.73;99695.31;10320382;28;99077;-81
2023/09/15 20:36:38;;;;;;;4.72;2.33;;;;;;;23.45;63.62;99685.28;10328117;28;97630;-81
2023/09/15 20:41:42;;;;;;;4.78;2.30;;;;;;;23.44;63.63;99695.16;10330511;28;96745;-83
2023/09/15 20:46:45;;;;;;;3.60;2.45;;;;;;;23.34;64.01;99694.41;10327441;28;98094;-83
2023/09/15 20:51:50;;;;;;;2.97;2.10;;;;;;;23.40;63.81;99687.59;10326361;28;98706;-83
2023/09/15 20:56:53;;;;;;;5.28;2.40;;;;;;;23.36;63.68;99679.00;10321373;28;97052;-81
2023/09/15 21:01:57;;;;;;;4.13;2.47;;;;;;;23.46;63.45;99676.19;10318158;28;97224;-86
2023/09/15 21:07:02;;;;;;;2.88;2.10;;;;;;;23.38;63.24;99666.25;10316041;28;96787;-87
2023/09/15 21:12:06;;;;;;;4.25;2.17;;;;;;;23.27;63.55;99665.63;10325969;28;98408;-87
2023/09/15 21:17:10;;;;;;;4.07;2.50;;;;;;;23.32;63.41;99660.69;10327936;28;96744;-88
2023/09/15 21:22:14;;;;;;;4.93;2.70;;;;;;;23.43;63.47;99647.84;10310624;28;97083;-86
2023/09/15 21:27:18;;;;;;;4.45;2.50;;;;;;;23.43;63.72;99636.25;10322505;28;97532;-86
2023/09/15 21:32:24;;;;;;;3.50;2.60;;;;;;;23.30;64.09;99619.72;10323259;28;97011;-86
2023/09/15 21:37:32;;;;;;;5.00;2.70;;;;;;;23.23;64.48;99619.47;10322203;28;96757;-86
2023/09/15 21:42:36;;;;;;;4.68;2.22;;;;;;;23.18;64.26;99618.28;10313454;28;97642;-87
2023/09/15 21:47:40;;;;;;;4.07;2.30;;;;;;;23.11;64.67;99609.16;10327984;28;96920;-86
2023/09/15 21:52:46;;;;;;;4.95;2.28;;;;;;;23.05;64.82;99602.56;10330814;28;98276;-86
2023/09/15 21:57:50;;;;;;;6.88;2.60;;;;;;;23.01;64.96;99589.63;10319391;28;96760;-86
2023/09/15 22:02:56;;;;;;;3.97;2.40;;;;;;;22.90;65.34;99571.91;10328210;28;97415;-86
2023/09/15 22:08:03;;;;;;;3.40;2.03;;;;;;;22.88;65.17;99568.53;10329918;28;98015;-85
2023/09/15 22:13:06;;;;;;;4.13;2.35;;;;;;;22.84;65.03;99555.56;10329012;28;96860;-87
2023/09/15 22:18:13;;;;;;;3.80;2.20;;;;;;;22.74;65.15;99555.63;10330497;28;96733;-85
2023/09/15 22:23:18;;;;;;;3.88;2.33;;;;;;;22.67;65.25;99554.56;10332050;28;96949;-85
2023/09/15 22:28:23;;;;;;;4.07;2.30;;;;;;;22.60;65.57;99564.22;10325084;28;97239;-87
2023/09/15 22:33:29;;;;;;;3.25;2.25;;;;;;;22.63;65.48;99558.53;10328550;28;96912;-85
2023/09/15 22:38:36;;;;;;;3.63;2.00;;;;;;;22.59;65.41;99552.63;10328545;28;97065;-86
2023/09/15 22:43:40;;;;;;;4.03;2.25;;;;;;;22.58;65.25;99553.66;10324831;28;96815;-86
2023/09/15 22:48:46;;;;;;;4.22;2.40;;;;;;;22.47;65.88;99551.19;10299473;28;96774;-88
2023/09/15 22:53:51;;;;;;;3.80;1.67;;;;;;;22.54;65.14;99552.25;10327066;28;96910;-88
2023/09/15 22:58:55;;;;;;;3.70;2.08;;;;;;;22.39;65.58;99548.44;10316801;28;98324;-86
2023/09/15 23:03:59;;;;;;;;;;;;;;;22.39;66.52;99553.78;10336964;28;97256;-89
2023/09/15 23:09:06;;;;;;;4.80;2.40;;;;;;;22.27;66.25;99554.16;10335815;28;96852;-88
2023/09/15 23:14:10;;;;;;;4.85;2.13;;;;;;;22.40;66.07;99546.59;10338023;28;96742;-88
2023/09/15 23:19:14;;;;;;;4.72;2.38;;;;;;;22.46;65.97;99546.81;10335611;28;96721;-86
2023/09/15 23:24:24;;;;;;;3.03;2.10;;;;;;;22.42;65.86;99544.59;10329032;28;97308;-85
2023/09/15 23:29:27;;;;;;;5.18;2.50;;;;;;;22.45;66.19;99544.31;10330161;28;96898;-85
2023/09/15 23:34:31;;;;;;;3.70;2.17;;;;;;;22.44;65.90;99543.44;10329803;28;96770;-86
2023/09/15 23:39:38;;;;;;;3.75;2.80;;;;;;;22.35;66.10;99530.13;10332833;28;96953;-86
2023/09/15 23:44:42;;;;;;;3.63;2.30;;;;;;;22.31;66.31;99536.78;10335501;28;96925;-86
2023/09/15 23:49:45;;;;;;;3.63;2.25;;;;;;;22.20;66.67;99535.16;10334091;28;98078;-85
2023/09/15 23:54:50;;;;;;;4.22;2.45;;;;;;;22.14;67.01;99541.09;10319686;28;97092;-85